createdAt,value
2024-01-05T00:00:49.002Z,195.70
2024-01-05T00:01:48.905Z,195.36
2024-01-05T00:02:48.982Z,195.35
2024-01-05T00:03:48.946Z,196.08
2024-01-05T00:04:48.881Z,197.32
2024-01-05T00:05:48.937Z,195.77
2024-01-05T00:06:49.008Z,196.04
2024-01-05T00:07:48.828Z,195.79
2024-01-05T00:08:48.831Z,196.95
2024-01-05T00:09:48.803Z,193.64
2024-01-05T00:10:48.787Z,195.88
2024-01-05T00:11:48.810Z,196.48
2024-01-05T00:12:48.782Z,193.78
2024-01-05T00:13:48.758Z,193.41
2024-01-05T00:14:48.776Z,193.58
2024-01-05T00:15:48.763Z,193.66
2024-01-05T00:16:48.699Z,193.85
2024-01-05T00:17:48.842Z,193.60
2024-01-05T00:18:48.893Z,194.05
2024-01-05T00:19:48.731Z,194.66
2024-01-05T00:20:48.723Z,192.89
2024-01-05T00:21:48.657Z,195.86
2024-01-05T00:22:48.627Z,192.45
2024-01-05T00:23:48.701Z,192.97
2024-01-05T00:24:48.609Z,193.74
2024-01-05T00:25:48.613Z,191.84
2024-01-05T00:26:48.598Z,193.42
2024-01-05T00:27:48.595Z,192.33
2024-01-05T00:28:48.572Z,192.96
2024-01-05T00:29:48.563Z,194.62
2024-01-05T00:30:48.655Z,192.10
2024-01-05T00:31:48.567Z,192.77
2024-01-05T00:32:48.747Z,195.47
2024-01-05T00:33:48.683Z,194.84
2024-01-05T00:34:48.695Z,192.25
2024-01-05T00:35:48.647Z,192.75
2024-01-05T00:36:48.647Z,190.56
2024-01-05T00:37:48.720Z,190.77
2024-01-05T00:38:49.257Z,192.91
2024-01-05T00:39:48.822Z,192.20
2024-01-05T00:40:48.815Z,192.22
2024-01-05T00:41:49.044Z,191.06
2024-01-05T00:42:48.790Z,191.74
2024-01-05T00:43:48.792Z,192.52
2024-01-05T00:44:48.819Z,193.41
2024-01-05T00:45:48.773Z,191.47
2024-01-05T00:46:48.741Z,190.27
2024-01-05T00:47:48.980Z,190.74
2024-01-05T00:48:48.847Z,192.41
2024-01-05T00:49:48.838Z,189.81
2024-01-05T00:50:48.735Z,191.20
2024-01-05T00:51:48.715Z,189.66
2024-01-05T00:52:48.712Z,189.68
2024-01-05T00:53:48.843Z,189.99
2024-01-05T00:54:48.686Z,189.70
2024-01-05T00:55:48.701Z,189.86
2024-01-05T00:56:48.758Z,190.12
2024-01-05T00:57:48.654Z,189.04
2024-01-05T00:58:48.645Z,190.01
2024-01-05T00:59:48.760Z,191.62
2024-01-05T01:00:48.703Z,191.35
2024-01-05T01:01:48.613Z,190.71
2024-01-05T01:02:48.617Z,190.16
2024-01-05T01:03:48.675Z,188.09
2024-01-05T01:04:48.666Z,189.18
2024-01-05T01:05:48.590Z,189.20
2024-01-05T01:06:48.603Z,189.17
2024-01-05T01:07:48.532Z,188.86
2024-01-05T01:08:48.522Z,190.60
2024-01-05T01:09:48.513Z,190.82
2024-01-05T01:10:48.527Z,189.39
2024-01-05T01:11:48.492Z,189.14
2024-01-05T01:12:48.495Z,188.53
2024-01-05T01:13:48.469Z,189.24
2024-01-05T01:14:48.443Z,188.32
2024-01-05T01:15:48.450Z,188.09
2024-01-05T01:16:48.418Z,188.58
2024-01-05T01:17:48.486Z,186.73
2024-01-05T01:18:48.575Z,187.78
2024-01-05T01:19:48.416Z,186.87
2024-01-05T01:20:48.382Z,187.18
2024-01-05T01:21:48.355Z,186.36
2024-01-05T01:22:48.349Z,185.48
2024-01-05T01:23:48.336Z,185.15
2024-01-05T01:24:48.313Z,185.21
2024-01-05T01:25:48.309Z,185.23
2024-01-05T01:26:48.276Z,185.64
2024-01-05T01:27:48.293Z,185.98
2024-01-05T01:28:48.232Z,185.11
2024-01-05T01:29:48.238Z,183.71
2024-01-05T01:30:48.324Z,184.38
2024-01-05T01:31:48.216Z,183.42
2024-01-05T01:32:48.214Z,185.71
2024-01-05T01:33:48.291Z,184.22
2024-01-05T01:34:48.226Z,185.46
2024-01-05T01:35:48.143Z,183.22
2024-01-05T01:36:48.167Z,183.31
2024-01-05T01:37:48.110Z,183.62
2024-01-05T01:38:48.108Z,183.58
2024-01-05T01:39:48.101Z,183.83
2024-01-05T01:40:48.079Z,184.87
2024-01-05T01:41:48.049Z,184.75
2024-01-05T01:42:48.101Z,183.07
2024-01-05T01:43:52.074Z,183.75
2024-01-05T01:44:49.035Z,183.84
2024-01-05T01:45:48.027Z,183.87
2024-01-05T01:46:48.004Z,184.10
2024-01-05T01:47:48.077Z,183.98
2024-01-05T01:48:48.196Z,185.36
2024-01-05T01:49:48.055Z,186.56
2024-01-05T01:50:47.955Z,183.68
2024-01-05T01:51:47.909Z,185.95
2024-01-05T01:52:47.892Z,184.01
2024-01-05T01:53:47.948Z,184.09
2024-01-05T01:54:47.863Z,184.35
2024-01-05T01:55:47.879Z,182.98
2024-01-05T01:56:47.844Z,183.58
2024-01-05T01:57:47.844Z,182.79
2024-01-05T01:58:47.834Z,184.04
2024-01-05T01:59:47.801Z,184.07
2024-01-05T02:00:47.887Z,183.50
2024-01-05T02:01:47.778Z,182.42
2024-01-05T02:02:47.757Z,180.06
2024-01-05T02:03:47.806Z,182.12
2024-01-05T02:04:47.822Z,181.09
2024-01-05T02:05:47.706Z,179.71
2024-01-05T02:06:47.691Z,180.74
2024-01-05T02:07:47.668Z,180.06
2024-01-05T02:08:47.669Z,179.68
2024-01-05T02:09:47.674Z,178.21
2024-01-05T02:10:47.688Z,179.61
2024-01-05T02:11:47.652Z,178.70
2024-01-05T02:12:47.648Z,177.36
2024-01-05T02:13:47.602Z,176.82
2024-01-05T02:14:47.606Z,176.43
2024-01-05T02:15:47.586Z,176.83
2024-01-05T02:16:47.563Z,176.92
2024-01-05T02:17:47.735Z,177.72
2024-01-05T02:18:47.588Z,176.36
2024-01-05T02:19:47.670Z,177.97
2024-01-05T02:20:47.514Z,175.93
2024-01-05T02:21:47.482Z,176.02
2024-01-05T02:22:47.490Z,176.21
2024-01-05T02:23:47.463Z,175.96
2024-01-05T02:24:47.465Z,177.61
2024-01-05T02:25:47.440Z,178.09
2024-01-05T02:26:47.906Z,176.46
2024-01-05T02:27:47.396Z,175.53
2024-01-05T02:28:47.387Z,175.61
2024-01-05T02:29:47.376Z,176.00
2024-01-05T02:30:47.447Z,175.90
2024-01-05T02:31:47.358Z,176.66
2024-01-05T02:32:47.338Z,176.43
2024-01-05T02:33:47.476Z,177.33
2024-01-05T02:34:47.332Z,175.05
2024-01-05T02:35:47.291Z,176.63
2024-01-05T02:36:47.444Z,177.42
2024-01-05T02:37:47.245Z,175.90
2024-01-05T02:38:47.250Z,172.68
2024-01-05T02:39:47.223Z,173.94
2024-01-05T02:40:47.242Z,174.65
2024-01-05T02:41:47.199Z,174.93
2024-01-05T02:42:47.185Z,173.34
2024-01-05T02:43:47.170Z,172.84
2024-01-05T02:44:47.152Z,174.64
2024-01-05T02:45:47.392Z,174.57
2024-01-05T02:46:47.143Z,174.70
2024-01-05T02:47:47.217Z,174.77
2024-01-05T02:48:47.319Z,173.54
2024-01-05T02:49:47.152Z,171.96
2024-01-05T02:50:47.086Z,173.84
2024-01-05T02:51:47.085Z,172.67
2024-01-05T02:52:47.049Z,174.46
2024-01-05T02:53:47.040Z,174.22
2024-01-05T02:54:47.022Z,174.43
2024-01-05T02:55:47.038Z,173.29
2024-01-05T02:56:46.993Z,173.16
2024-01-05T02:57:46.992Z,173.08
2024-01-05T02:58:46.975Z,173.89
2024-01-05T02:59:46.962Z,173.60
2024-01-05T03:00:47.169Z,174.22
2024-01-05T03:01:46.919Z,173.85
2024-01-05T03:02:46.912Z,174.56
2024-01-05T03:03:50.537Z,173.07
2024-01-05T03:04:46.934Z,173.52
2024-01-05T03:05:46.943Z,174.15
2024-01-05T03:06:47.386Z,174.65
2024-01-05T03:07:46.830Z,173.77
2024-01-05T03:08:46.820Z,173.36
2024-01-05T03:09:46.813Z,171.47
2024-01-05T03:10:46.805Z,173.40
2024-01-05T03:11:46.788Z,173.46
2024-01-05T03:12:46.785Z,173.55
2024-01-05T03:13:46.783Z,174.35
2024-01-05T03:14:46.746Z,172.08
2024-01-05T03:15:46.728Z,165.84
2024-01-05T03:16:46.902Z,160.48
2024-01-05T03:17:46.719Z,154.21
2024-01-05T03:18:46.825Z,144.30
2024-01-05T03:19:46.752Z,136.92
2024-01-05T03:20:46.668Z,127.28
2024-01-05T03:21:46.641Z,120.79
2024-01-05T03:22:46.656Z,111.32
2024-01-05T03:23:46.624Z,101.97
2024-01-05T03:24:46.615Z,92.37
2024-01-05T03:25:46.595Z,85.70
2024-01-05T03:26:46.588Z,76.06
2024-01-05T03:27:46.582Z,67.10
2024-01-05T03:28:46.557Z,55.89
2024-01-05T03:29:46.563Z,49.76
2024-01-05T03:30:46.681Z,41.47
2024-01-05T03:31:46.539Z,43.77
2024-01-05T03:32:46.653Z,34.44
2024-01-05T03:33:46.724Z,24.38
2024-01-05T03:34:46.541Z,40.54
2024-01-05T03:35:46.501Z,49.72
2024-01-05T03:36:46.914Z,50.00
2024-01-05T03:37:46.489Z,50.00
2024-01-05T03:38:46.486Z,50.96
2024-01-05T03:39:46.515Z,50.90
2024-01-05T03:40:46.511Z,50.13
2024-01-05T03:41:46.528Z,50.54
2024-01-05T03:42:46.592Z,51.53
2024-01-05T03:43:46.642Z,50.70
2024-01-05T03:44:46.698Z,50.19
2024-01-05T03:45:46.970Z,50.40
2024-01-05T03:46:46.795Z,50.00
2024-01-05T03:47:46.906Z,50.53
2024-01-05T03:48:47.005Z,50.78
2024-01-05T03:49:47.050Z,50.13
2024-01-05T03:50:47.182Z,50.16
2024-01-05T03:51:47.145Z,50.27
2024-01-05T03:52:47.132Z,49.10
2024-01-05T03:53:47.147Z,46.29
2024-01-05T03:54:47.175Z,46.54
2024-01-05T03:55:47.155Z,45.25
2024-01-05T03:56:47.106Z,44.24
2024-01-05T03:57:47.108Z,41.81
2024-01-05T03:58:47.158Z,50.42
2024-01-05T03:59:47.119Z,50.61
2024-01-05T04:00:47.206Z,50.67
2024-01-05T04:01:47.164Z,51.52
2024-01-05T04:02:47.195Z,51.72
2024-01-05T04:03:47.224Z,50.94
2024-01-05T04:04:47.202Z,51.67
2024-01-05T04:05:47.169Z,50.49
2024-01-05T04:06:47.583Z,50.83
2024-01-05T04:07:47.121Z,50.22
2024-01-05T04:08:47.166Z,50.31
2024-01-05T04:09:47.226Z,50.74
2024-01-05T04:10:47.271Z,50.48
2024-01-05T04:11:47.286Z,49.94
2024-01-05T04:12:47.301Z,49.95
2024-01-05T04:13:47.309Z,49.82
2024-01-05T04:14:47.316Z,49.40
2024-01-05T04:15:47.333Z,49.00
2024-01-05T04:16:47.534Z,49.34
2024-01-05T04:17:47.318Z,49.96
2024-01-05T04:18:47.457Z,51.58
2024-01-05T04:19:47.331Z,49.17
2024-01-05T04:20:47.323Z,50.29
2024-01-05T04:21:47.315Z,48.78
2024-01-05T04:22:47.306Z,49.17
2024-01-05T04:23:47.298Z,47.76
2024-01-05T04:24:47.312Z,47.90
2024-01-05T04:25:47.317Z,51.49
2024-01-05T04:26:47.311Z,50.99
2024-01-05T04:27:47.324Z,51.12
2024-01-05T04:28:47.309Z,50.25
2024-01-05T04:29:47.310Z,49.91
2024-01-05T04:30:47.427Z,51.02
2024-01-05T04:31:47.379Z,50.18
2024-01-05T04:32:47.380Z,51.21
2024-01-05T04:33:47.519Z,50.90
2024-01-05T04:34:47.368Z,51.06
2024-01-05T04:35:47.321Z,51.21
2024-01-05T04:36:47.683Z,50.38
2024-01-05T04:37:47.328Z,51.78
2024-01-05T04:38:54.672Z,50.00
2024-01-05T04:39:54.601Z,50.00
2024-01-05T04:40:54.620Z,50.00
2024-01-05T04:41:54.643Z,50.00
2024-01-05T04:42:54.637Z,50.00
2024-01-05T04:43:54.641Z,50.46
2024-01-05T04:44:54.685Z,52.08
2024-01-05T04:45:54.680Z,51.54
2024-01-05T04:46:54.673Z,50.57
2024-01-05T04:47:54.760Z,53.50
2024-01-05T04:48:54.811Z,51.86
2024-01-05T04:49:54.720Z,53.14
2024-01-05T04:50:54.755Z,52.54
2024-01-05T04:51:54.739Z,50.47
2024-01-05T04:52:54.705Z,51.46
2024-01-05T04:53:54.728Z,50.84
2024-01-05T04:54:54.728Z,50.80
2024-01-05T04:55:54.723Z,51.74
2024-01-05T04:56:54.758Z,50.00
2024-01-05T04:57:54.745Z,50.23
2024-01-05T04:58:54.733Z,52.55
2024-01-05T04:59:54.786Z,53.81
2024-01-05T05:00:55.531Z,52.94
2024-01-05T05:01:54.751Z,54.56
2024-01-05T05:02:54.944Z,52.79
2024-01-05T05:03:54.816Z,51.52
2024-01-05T05:04:54.788Z,51.97
2024-01-05T05:05:55.293Z,53.86
2024-01-05T05:06:54.773Z,54.02
2024-01-05T05:07:54.798Z,53.14
2024-01-05T05:08:54.832Z,54.65
2024-01-05T05:09:54.791Z,53.84
2024-01-05T05:10:55.165Z,53.66
2024-01-05T05:11:54.849Z,51.43
2024-01-05T05:12:54.816Z,51.17
2024-01-05T05:13:54.809Z,53.34
2024-01-05T05:14:54.854Z,53.36
2024-01-05T05:15:54.825Z,51.72
2024-01-05T05:16:54.838Z,50.30
2024-01-05T05:17:55.283Z,51.98
2024-01-05T05:18:54.993Z,50.30
2024-01-05T05:19:54.841Z,51.97
2024-01-05T05:20:54.954Z,55.59
2024-01-05T05:21:54.880Z,55.25
2024-01-05T05:22:54.871Z,55.02
2024-01-05T05:23:54.914Z,55.34
2024-01-05T05:24:54.902Z,53.90
2024-01-05T05:25:54.957Z,57.07
2024-01-05T05:26:54.989Z,56.21
2024-01-05T05:27:55.010Z,52.96
2024-01-05T05:28:55.040Z,54.97
2024-01-05T05:29:55.089Z,56.19
2024-01-05T05:30:55.270Z,55.17
2024-01-05T05:31:55.110Z,53.57
2024-01-05T05:32:55.317Z,55.86
2024-01-05T05:33:55.297Z,56.45
2024-01-05T05:34:55.219Z,57.30
2024-01-05T05:35:55.233Z,57.81
2024-01-05T05:36:55.225Z,57.30
2024-01-05T05:37:55.257Z,56.12
2024-01-05T05:38:55.340Z,57.30
2024-01-05T05:39:55.318Z,58.29
2024-01-05T05:40:55.372Z,57.70
2024-01-05T05:41:55.419Z,58.39
2024-01-05T05:42:55.383Z,56.67
2024-01-05T05:43:55.409Z,58.27
2024-01-05T05:44:55.416Z,59.09
2024-01-05T05:45:55.651Z,59.67
2024-01-05T05:46:55.403Z,58.46
2024-01-05T05:47:55.493Z,58.90
2024-01-05T05:48:55.613Z,59.63
2024-01-05T05:49:55.453Z,60.72
2024-01-05T05:50:55.772Z,61.16
2024-01-05T05:51:55.465Z,63.98
2024-01-05T05:52:55.473Z,63.70
2024-01-05T05:53:55.598Z,63.75
2024-01-05T05:54:55.487Z,63.89
2024-01-05T05:55:55.512Z,63.80
2024-01-05T05:56:55.560Z,64.99
2024-01-05T05:57:55.526Z,66.38
2024-01-05T05:58:55.536Z,66.64
2024-01-05T05:59:55.582Z,64.85
2024-01-05T06:00:55.979Z,65.81
2024-01-05T06:01:55.685Z,67.22
2024-01-05T06:02:55.604Z,64.35
2024-01-05T06:03:55.681Z,62.91
2024-01-05T06:04:55.620Z,65.37
2024-01-05T06:05:56.163Z,64.39
2024-01-05T06:06:55.705Z,66.55
2024-01-05T06:07:55.643Z,62.67
2024-01-05T06:08:55.674Z,63.59
2024-01-05T06:09:55.667Z,65.75
2024-01-05T06:10:56.555Z,65.13
2024-01-05T06:11:55.755Z,67.70
2024-01-05T06:12:55.686Z,65.44
2024-01-05T06:13:55.709Z,64.21
2024-01-05T06:14:55.742Z,61.43
2024-01-05T06:15:55.743Z,64.51
2024-01-05T06:16:55.734Z,65.09
2024-01-05T06:17:55.895Z,65.14
2024-01-05T06:18:55.904Z,64.44
2024-01-05T06:19:55.802Z,64.37
2024-01-05T06:20:55.826Z,65.32
2024-01-05T06:21:55.788Z,67.33
2024-01-05T06:22:55.835Z,67.38
2024-01-05T06:23:55.830Z,65.75
2024-01-05T06:24:55.812Z,68.24
2024-01-05T06:25:55.806Z,68.61
2024-01-05T06:26:55.840Z,67.53
2024-01-05T06:27:55.866Z,69.18
2024-01-05T06:28:55.844Z,66.77
2024-01-05T06:29:55.860Z,69.38
2024-01-05T06:30:56.009Z,69.17
2024-01-05T06:31:55.864Z,68.07
2024-01-05T06:32:56.001Z,70.94
2024-01-05T06:33:56.845Z,68.33
2024-01-05T06:34:55.970Z,72.07
2024-01-05T06:35:56.036Z,71.03
2024-01-05T06:36:56.052Z,73.08
2024-01-05T06:37:56.117Z,70.59
2024-01-05T06:38:56.230Z,71.44
2024-01-05T06:39:56.221Z,71.19
2024-01-05T06:40:56.239Z,71.20
2024-01-05T06:41:56.286Z,71.25
2024-01-05T06:42:56.263Z,71.23
2024-01-05T06:43:56.270Z,70.43
2024-01-05T06:44:56.322Z,71.43
2024-01-05T06:45:56.308Z,70.40
2024-01-05T06:46:56.305Z,70.61
2024-01-05T06:47:56.461Z,68.59
2024-01-05T06:48:56.418Z,71.39
2024-01-05T06:49:56.577Z,72.39
2024-01-05T06:50:56.401Z,68.08
2024-01-05T06:51:56.402Z,70.39
2024-01-05T06:52:56.388Z,69.30
2024-01-05T06:53:56.435Z,67.40
2024-01-05T06:54:56.414Z,69.58
2024-01-05T06:55:56.418Z,65.52
2024-01-05T06:56:56.439Z,68.11
2024-01-05T06:57:56.518Z,67.02
2024-01-05T06:58:56.579Z,68.03
2024-01-05T06:59:56.637Z,65.28
2024-01-05T07:00:56.765Z,66.48
2024-01-05T07:01:56.737Z,66.58
2024-01-05T07:02:56.866Z,65.52
2024-01-05T07:03:56.922Z,63.73
2024-01-05T07:04:56.959Z,67.57
2024-01-05T07:05:57.080Z,67.85
2024-01-05T07:06:57.053Z,66.22
2024-01-05T07:07:57.122Z,65.52
2024-01-05T07:08:57.213Z,60.60
2024-01-05T07:09:57.254Z,64.08
2024-01-05T07:10:57.342Z,59.53
2024-01-05T07:11:57.548Z,64.35
2024-01-05T07:12:57.443Z,59.14
2024-01-05T07:13:57.513Z,61.14
2024-01-05T07:14:57.578Z,60.49
2024-01-05T07:15:57.550Z,61.17
2024-01-05T07:16:57.550Z,60.10
2024-01-05T07:17:57.696Z,61.60
2024-01-05T07:18:57.687Z,59.41
2024-01-05T07:19:57.617Z,59.03
2024-01-05T07:20:57.669Z,60.95
2024-01-05T07:21:57.640Z,58.43
2024-01-05T07:22:57.645Z,59.67
2024-01-05T07:23:57.659Z,62.86
2024-01-05T07:24:57.664Z,61.22
2024-01-05T07:25:57.710Z,61.17
2024-01-05T07:26:57.727Z,61.26
2024-01-05T07:27:57.743Z,61.22
2024-01-05T07:28:57.740Z,59.84
2024-01-05T07:29:57.764Z,62.73
2024-01-05T07:30:57.926Z,64.19
2024-01-05T07:31:57.781Z,65.88
2024-01-05T07:32:57.913Z,69.71
2024-01-05T07:33:57.933Z,67.64
2024-01-05T07:34:57.829Z,69.98
2024-01-05T07:35:57.951Z,71.03
2024-01-05T07:36:57.962Z,69.10
2024-01-05T07:37:57.926Z,71.13
2024-01-05T07:38:57.972Z,69.49
2024-01-05T07:39:57.959Z,68.21
2024-01-05T07:40:57.978Z,68.72
2024-01-05T07:41:57.993Z,66.91
2024-01-05T07:42:58.053Z,67.43
2024-01-05T07:43:57.993Z,66.33
2024-01-05T07:44:58.138Z,69.24
2024-01-05T07:45:58.486Z,68.99
2024-01-05T07:46:58.133Z,69.91
2024-01-05T07:47:58.257Z,68.96
2024-01-05T07:48:58.340Z,68.99
2024-01-05T07:49:58.234Z,63.43
2024-01-05T07:50:58.354Z,67.33
2024-01-05T07:51:58.272Z,66.88
2024-01-05T07:52:58.258Z,64.52
2024-01-05T07:53:58.320Z,66.94
2024-01-05T07:54:58.282Z,67.12
2024-01-05T07:55:58.320Z,65.29
2024-01-05T07:56:58.377Z,66.39
2024-01-05T07:57:58.449Z,68.91
2024-01-05T07:58:58.496Z,66.78
2024-01-05T07:59:58.660Z,67.57
2024-01-05T08:00:58.729Z,66.98
2024-01-05T08:01:58.721Z,67.42
2024-01-05T08:02:58.850Z,67.33
2024-01-05T08:03:58.929Z,66.46
2024-01-05T08:04:58.887Z,65.36
2024-01-05T08:05:59.053Z,64.36
2024-01-05T08:06:59.068Z,67.60
2024-01-05T08:07:59.061Z,65.22
2024-01-05T08:08:59.173Z,64.28
2024-01-05T08:09:59.181Z,66.64
2024-01-05T08:10:59.277Z,64.36
2024-01-05T08:11:59.340Z,63.49
2024-01-05T08:12:59.369Z,64.59
2024-01-05T08:13:59.501Z,63.93
2024-01-05T08:14:59.615Z,65.90
2024-01-05T08:15:59.596Z,65.21
2024-01-05T08:16:59.641Z,64.20
2024-01-05T08:17:59.784Z,65.21
2024-01-05T08:18:59.868Z,64.03
2024-01-05T08:19:59.914Z,63.94
2024-01-05T08:20:59.984Z,63.72
2024-01-05T08:22:00.021Z,63.77
2024-01-05T08:23:00.129Z,63.58
2024-01-05T08:24:00.274Z,62.95
2024-01-05T08:25:00.230Z,62.71
2024-01-05T08:26:00.385Z,62.56
2024-01-05T08:27:00.454Z,62.64
2024-01-05T08:28:00.489Z,61.73
2024-01-05T08:29:00.571Z,63.76
2024-01-05T08:30:00.737Z,63.88
2024-01-05T08:31:00.884Z,62.42
2024-01-05T08:32:00.902Z,62.53
2024-01-05T08:33:01.197Z,63.79
2024-01-05T08:34:01.150Z,62.99
2024-01-05T08:35:01.057Z,62.39
2024-01-05T08:36:01.125Z,60.36
2024-01-05T08:37:01.082Z,62.61
2024-01-05T08:38:01.094Z,62.66
2024-01-05T08:39:01.118Z,63.43
2024-01-05T08:40:01.140Z,62.25
2024-01-05T08:41:01.605Z,63.04
2024-01-05T08:42:01.136Z,62.92
2024-01-05T08:43:01.126Z,65.99
2024-01-05T08:44:01.250Z,65.23
2024-01-05T08:45:01.334Z,64.12
2024-01-05T08:52:06.638Z,64.57
2024-01-05T08:53:01.337Z,65.07
2024-01-05T08:54:01.368Z,66.58
2024-01-05T08:55:01.387Z,69.02
2024-01-05T08:56:01.719Z,70.92
2024-01-05T08:57:01.517Z,71.74
2024-01-05T08:58:01.571Z,65.93
2024-01-05T08:59:01.595Z,63.04
2024-01-05T09:00:01.730Z,61.55
2024-01-05T09:01:01.735Z,64.59
2024-01-05T09:02:01.594Z,63.75
2024-01-05T09:03:01.757Z,63.85
2024-01-05T09:04:01.645Z,62.15
2024-01-05T09:05:01.610Z,59.51
2024-01-05T09:06:01.641Z,60.20
2024-01-05T09:07:01.624Z,60.03
2024-01-05T09:08:01.636Z,62.13
2024-01-05T09:09:01.666Z,56.82
2024-01-05T09:10:01.646Z,56.75
2024-01-05T09:11:01.620Z,52.75
2024-01-05T09:12:01.666Z,54.81
2024-01-05T09:13:01.713Z,55.31
2024-01-05T09:14:01.626Z,46.44
2024-01-05T09:15:01.666Z,29.25
2024-01-05T09:16:01.600Z,37.16
2024-01-05T09:17:01.954Z,54.31
2024-01-05T09:18:01.756Z,36.26
2024-01-05T09:19:01.718Z,32.77
2024-01-05T09:20:01.624Z,52.97
2024-01-05T09:21:01.573Z,50.07
2024-01-05T09:22:01.519Z,50.54
2024-01-05T09:23:01.509Z,53.35
2024-01-05T09:24:01.546Z,55.58
2024-01-05T09:25:01.500Z,66.69
2024-01-05T09:26:01.430Z,76.95
2024-01-05T09:27:01.420Z,77.38
2024-01-05T09:28:01.396Z,79.26
2024-01-05T09:29:01.361Z,84.64
2024-01-05T09:30:01.416Z,100.51
2024-01-05T09:31:01.451Z,130.98
2024-01-05T09:32:01.324Z,136.45
2024-01-05T09:33:01.373Z,141.68
2024-01-05T09:34:01.353Z,142.54
2024-01-05T09:35:01.260Z,142.34
2024-01-05T09:36:01.271Z,149.52
2024-01-05T09:37:01.221Z,162.39
2024-01-05T09:38:01.203Z,171.11
2024-01-05T09:39:01.223Z,175.17
2024-01-05T09:40:01.212Z,183.77
2024-01-05T09:41:01.166Z,199.13
2024-01-05T09:42:01.171Z,199.41
2024-01-05T09:43:01.109Z,201.81
2024-01-05T09:44:01.080Z,202.44
2024-01-05T09:45:01.122Z,201.84
2024-01-05T09:46:01.049Z,209.66
2024-01-05T09:47:01.025Z,201.97
2024-01-05T09:48:01.126Z,200.00
2024-01-05T09:49:01.167Z,199.69
2024-01-05T09:50:01.351Z,199.40
2024-01-05T09:51:01.020Z,198.68
2024-01-05T09:52:00.892Z,200.00
2024-01-05T09:53:00.884Z,200.99
2024-01-05T09:54:00.919Z,199.65
2024-01-05T09:55:00.857Z,200.00
2024-01-05T09:56:00.833Z,200.16
2024-01-05T09:57:00.888Z,201.11
2024-01-05T09:58:00.804Z,204.26
2024-01-05T09:59:00.808Z,200.45
2024-01-05T10:00:00.866Z,202.76
2024-01-05T10:01:00.852Z,205.68
2024-01-05T10:02:00.756Z,215.84
2024-01-05T10:03:00.829Z,224.61
2024-01-05T10:04:01.087Z,215.71
2024-01-05T10:05:00.747Z,202.71
2024-01-05T10:06:01.005Z,200.00
2024-01-05T10:07:00.823Z,199.56
2024-01-05T10:08:00.802Z,199.95
2024-01-05T10:09:00.852Z,198.11
2024-01-05T10:10:00.887Z,198.17
2024-01-05T10:11:00.920Z,199.14
2024-01-05T10:12:00.969Z,199.95
2024-01-05T10:13:00.927Z,199.58
2024-01-05T10:14:00.900Z,199.43
2024-01-05T10:15:00.923Z,199.69
2024-01-05T10:16:00.914Z,199.42
2024-01-05T10:17:00.878Z,199.55
2024-01-05T10:18:01.053Z,199.36
2024-01-05T10:19:00.968Z,198.86
2024-01-05T10:20:00.944Z,199.80
2024-01-05T10:21:00.899Z,198.56
2024-01-05T10:22:00.852Z,198.90
2024-01-05T10:23:00.854Z,199.32
2024-01-05T10:24:00.843Z,199.37
2024-01-05T10:25:00.836Z,199.66
2024-01-05T10:26:00.834Z,200.09
2024-01-05T10:27:00.857Z,199.42
2024-01-05T10:28:00.815Z,199.55
2024-01-05T10:29:00.812Z,200.78
2024-01-05T10:30:00.940Z,202.66
2024-01-05T10:31:00.851Z,204.39
2024-01-05T10:32:00.776Z,199.45
2024-01-05T10:33:00.851Z,199.47
2024-01-05T10:34:00.802Z,199.68
2024-01-05T10:35:00.874Z,200.12
2024-01-05T10:36:00.802Z,201.24
2024-01-05T10:37:00.751Z,202.25
2024-01-05T10:38:00.725Z,199.48
2024-01-05T10:39:00.730Z,199.71
2024-01-05T10:40:00.717Z,199.27
2024-01-05T10:41:00.704Z,199.90
2024-01-05T10:42:00.709Z,199.70
2024-01-05T10:43:00.669Z,199.23
2024-01-05T10:44:00.652Z,199.60
2024-01-05T10:45:00.940Z,199.14
2024-01-05T10:46:00.633Z,199.15
2024-01-05T10:47:00.622Z,199.49
2024-01-05T10:48:00.821Z,199.43
2024-01-05T10:49:00.692Z,199.26
2024-01-05T10:50:00.958Z,199.02
2024-01-05T10:51:00.604Z,198.82
2024-01-05T10:52:00.545Z,199.89
2024-01-05T10:53:00.531Z,199.04
2024-01-05T10:54:00.559Z,199.06
2024-01-05T10:55:00.496Z,199.65
2024-01-05T10:56:00.492Z,199.90
2024-01-05T10:57:00.491Z,199.09
2024-01-05T10:58:00.462Z,199.67
2024-01-05T10:59:00.484Z,199.46
2024-01-05T11:00:00.715Z,199.52
2024-01-05T11:01:00.521Z,199.59
2024-01-05T11:02:00.430Z,199.91
2024-01-05T11:03:00.474Z,200.27
2024-01-05T11:04:00.527Z,200.89
2024-01-05T11:05:00.432Z,199.36
2024-01-05T11:06:00.512Z,198.90
2024-01-05T11:07:00.496Z,199.50
2024-01-05T11:08:00.369Z,199.79
2024-01-05T11:09:00.439Z,200.00
2024-01-05T11:10:00.332Z,199.74
2024-01-05T11:11:00.351Z,199.74
2024-01-05T11:12:00.354Z,199.80
2024-01-05T11:13:00.318Z,199.76
2024-01-05T11:14:00.336Z,199.36
2024-01-05T11:15:00.386Z,199.38
2024-01-05T11:16:00.294Z,199.47
2024-01-05T11:17:00.295Z,199.58
2024-01-05T11:18:00.454Z,200.04
2024-01-05T11:19:00.420Z,200.66
2024-01-05T11:20:00.465Z,199.41
2024-01-05T11:21:00.310Z,199.65
2024-01-05T11:22:00.220Z,199.66
2024-01-05T11:23:00.233Z,199.43
2024-01-05T11:24:00.276Z,199.64
2024-01-05T11:25:00.264Z,199.45
2024-01-05T11:26:00.226Z,199.80
2024-01-05T11:27:00.270Z,200.03
2024-01-05T11:28:00.179Z,200.55
2024-01-05T11:29:00.159Z,201.49
2024-01-05T11:30:00.256Z,199.64
2024-01-05T11:31:00.261Z,199.17
2024-01-05T11:32:00.141Z,199.00
2024-01-05T11:33:00.201Z,199.66
2024-01-05T11:34:00.235Z,199.52
2024-01-05T11:35:00.102Z,199.12
2024-01-05T11:36:00.158Z,198.48
2024-01-05T11:37:00.057Z,198.52
2024-01-05T11:38:00.055Z,198.56
2024-01-05T11:39:00.130Z,198.88
2024-01-05T11:40:00.015Z,198.89
2024-01-05T11:41:00.030Z,199.45
2024-01-05T11:42:00.043Z,199.68
2024-01-05T11:43:00.002Z,199.41
2024-01-05T11:43:59.991Z,200.00
2024-01-05T11:45:00.151Z,199.12
2024-01-05T11:46:00.006Z,199.69
2024-01-05T11:47:00.003Z,199.70
2024-01-05T11:48:00.212Z,199.70
2024-01-05T11:49:00.181Z,198.90
2024-01-05T11:50:00.027Z,199.12
2024-01-05T11:51:00.026Z,199.14
2024-01-05T11:51:59.950Z,198.81
2024-01-05T11:52:59.951Z,198.00
2024-01-05T11:53:59.985Z,199.45
2024-01-05T11:54:59.921Z,198.45
2024-01-05T11:55:59.949Z,199.03
2024-01-05T11:57:00.036Z,199.03
2024-01-05T11:58:00.039Z,199.55
2024-01-05T11:59:00.073Z,199.33
2024-01-05T12:00:00.122Z,199.37
2024-01-05T12:01:00.092Z,199.41
2024-01-05T12:02:00.032Z,199.46
2024-01-05T12:03:00.054Z,198.58
2024-01-05T12:04:00.097Z,200.29
2024-01-05T12:04:59.989Z,199.67
2024-01-05T12:06:00.073Z,199.16
2024-01-05T12:06:59.965Z,199.23
2024-01-05T12:08:00.008Z,198.97
2024-01-05T12:09:00.087Z,199.45
2024-01-05T12:10:00.210Z,198.54
2024-01-05T12:11:00.181Z,198.29
2024-01-05T12:12:01.054Z,198.48
2024-01-05T12:13:00.210Z,198.93
2024-01-05T12:14:00.254Z,198.53
2024-01-05T12:15:00.398Z,198.40
2024-01-05T12:16:02.256Z,198.83
2024-01-05T12:17:00.369Z,198.99
2024-01-05T12:18:00.480Z,198.87
2024-01-05T12:19:00.707Z,198.45
2024-01-05T12:20:00.737Z,199.33
2024-01-05T12:21:00.564Z,198.22
2024-01-05T12:22:00.561Z,199.09
2024-01-05T12:23:00.616Z,198.59
2024-01-05T12:24:00.685Z,197.60
2024-01-05T12:25:00.707Z,198.31
2024-01-05T12:26:00.758Z,197.91
2024-01-05T12:27:00.829Z,198.13
2024-01-05T12:28:00.874Z,198.36
2024-01-05T12:29:00.902Z,198.33
2024-01-05T12:30:01.040Z,196.18
2024-01-05T12:31:01.061Z,197.05
2024-01-05T12:32:01.021Z,198.03
2024-01-05T12:33:01.136Z,195.91
2024-01-05T12:34:01.383Z,197.71
2024-01-05T12:35:01.325Z,197.40
2024-01-05T12:36:01.231Z,197.69
2024-01-05T12:37:01.354Z,197.49
2024-01-05T12:38:01.297Z,197.08
2024-01-05T12:39:01.394Z,197.81
2024-01-05T12:40:01.406Z,197.91
2024-01-05T12:41:01.381Z,197.94
2024-01-05T12:42:01.474Z,197.42
2024-01-05T12:43:01.353Z,198.06
2024-01-05T12:44:01.324Z,197.19
2024-01-05T12:45:01.331Z,198.23
2024-01-05T12:46:01.309Z,197.27